createdAt,value
2022-11-24T00:00:24.946Z,89.4
2022-11-24T00:01:27.597Z,89.4
2022-11-24T00:02:31.530Z,89.4
2022-11-24T00:03:35.316Z,89.4
2022-11-24T00:04:39.118Z,89.4
2022-11-24T00:05:42.298Z,89.5
2022-11-24T00:06:45.749Z,89.4
2022-11-24T00:07:48.627Z,89.4
2022-11-24T00:08:51.646Z,89.5
2022-11-24T00:09:55.169Z,89.7
2022-11-24T00:10:57.562Z,89.6
2022-11-24T00:12:00.725Z,89.7
2022-11-24T00:13:05.042Z,89.7
2022-11-24T00:14:08.495Z,89.7
2022-11-24T00:15:11.096Z,89.7
2022-11-24T00:16:14.768Z,89.7
2022-11-24T00:17:18.251Z,89.8
2022-11-24T00:18:20.853Z,89.9
2022-11-24T00:19:24.025Z,90
2022-11-24T00:20:26.738Z,90.1
2022-11-24T00:21:29.742Z,90.1
2022-11-24T00:22:32.929Z,90.1
2022-11-24T00:23:36.191Z,90.1
2022-11-24T00:24:39.061Z,90.1
2022-11-24T00:25:41.592Z,90
2022-11-24T00:26:45.116Z,90
2022-11-24T00:27:48.620Z,90
2022-11-24T00:28:52.869Z,89.9
2022-11-24T00:29:56.679Z,89.9
2022-11-24T00:30:59.959Z,89.8
2022-11-24T00:32:03.598Z,89.7
2022-11-24T00:33:06.847Z,89.8
2022-11-24T00:34:09.737Z,89.9
2022-11-24T00:35:13.186Z,90
2022-11-24T00:36:16.938Z,90.1
2022-11-24T00:37:20.693Z,90
2022-11-24T00:38:23.735Z,90
2022-11-24T00:39:26.701Z,90
2022-11-24T00:40:35.993Z,90
2022-11-24T00:41:39.288Z,90
2022-11-24T00:42:42.468Z,89.9
2022-11-24T00:43:45.686Z,90
2022-11-24T00:44:49.703Z,90.2
2022-11-24T00:45:53.435Z,90.2
2022-11-24T00:46:57.362Z,90.2
2022-11-24T00:48:00.596Z,90.2
2022-11-24T00:49:04.333Z,90.2
2022-11-24T00:50:07.502Z,90.2
2022-11-24T00:51:10.828Z,90.2
2022-11-24T00:52:14.164Z,90.3
2022-11-24T00:53:16.775Z,90.3
2022-11-24T00:54:20.032Z,90.4
2022-11-24T00:55:23.012Z,90.4
2022-11-24T00:56:25.933Z,90.4
2022-11-24T00:57:29.006Z,90.4
2022-11-24T00:58:32.285Z,90.3
2022-11-24T00:59:35.008Z,90.3
2022-11-24T01:00:38.677Z,90.3
2022-11-24T01:01:42.309Z,90.3
2022-11-24T01:02:45.221Z,90.4
2022-11-24T01:03:48.779Z,90.4
2022-11-24T01:04:51.779Z,90.5
2022-11-24T01:05:54.915Z,90.6
2022-11-24T01:06:58.113Z,90.5
2022-11-24T01:08:01.260Z,90.5
2022-11-24T01:09:04.651Z,90.5
2022-11-24T01:10:07.830Z,90.3
2022-11-24T01:11:11.291Z,90.4
2022-11-24T01:12:14.573Z,90.4
2022-11-24T01:13:16.807Z,90.4
2022-11-24T01:14:20.103Z,90.5
2022-11-24T01:15:23.036Z,90.4
2022-11-24T01:16:27.294Z,90.4
2022-11-24T01:17:30.691Z,90.3
2022-11-24T01:18:33.484Z,90.2
2022-11-24T01:19:36.282Z,90.2
2022-11-24T01:20:39.689Z,90.2
2022-11-24T01:21:42.833Z,90.3
2022-11-24T01:22:46.006Z,90.4
2022-11-24T01:23:48.507Z,90.5
2022-11-24T01:24:51.659Z,90.6
2022-11-24T01:25:54.067Z,90.6
2022-11-24T01:26:57.202Z,90.5
2022-11-24T01:28:00.282Z,90.5
2022-11-24T01:29:03.117Z,90.4
2022-11-24T01:30:06.621Z,90.3
2022-11-24T01:31:10.655Z,90.4
2022-11-24T01:32:14.551Z,90.4
2022-11-24T01:33:18.170Z,90.4
2022-11-24T01:34:21.042Z,90.5
2022-11-24T01:35:23.304Z,90.5
2022-11-24T01:36:26.831Z,90.4
2022-11-24T01:37:29.909Z,90.4
2022-11-24T01:38:33.150Z,90.5
2022-11-24T01:39:36.230Z,90.5
2022-11-24T01:40:38.743Z,90.5
2022-11-24T01:41:42.268Z,90.5
2022-11-24T01:42:45.701Z,90.5
2022-11-24T01:43:48.116Z,90.5
2022-11-24T01:44:50.727Z,90.6
2022-11-24T01:45:54.220Z,90.6
2022-11-24T01:46:57.573Z,90.6
2022-11-24T01:48:02.297Z,90.6
2022-11-24T01:49:05.174Z,90.6
2022-11-24T01:50:08.337Z,90.5
2022-11-24T01:51:10.870Z,90.5
2022-11-24T01:52:14.203Z,90.5
2022-11-24T01:53:16.734Z,90.6
2022-11-24T01:54:19.603Z,90.6
2022-11-24T01:55:22.670Z,90.5
2022-11-24T01:56:25.686Z,90.6
2022-11-24T01:57:28.254Z,90.5
2022-11-24T01:58:31.164Z,90.5
2022-11-24T01:59:34.325Z,90.6
2022-11-24T02:00:37.198Z,90.6
2022-11-24T02:01:40.497Z,90.6
2022-11-24T02:02:44.652Z,90.6
2022-11-24T02:03:48.854Z,90.5
2022-11-24T02:04:52.430Z,90.4
2022-11-24T02:05:55.269Z,90.4
2022-11-24T02:06:58.538Z,90.4
2022-11-24T02:08:01.330Z,90.4
2022-11-24T02:09:04.453Z,90.4
2022-11-24T02:10:07.508Z,90.5
2022-11-24T02:11:10.965Z,90.5
2022-11-24T02:12:14.185Z,90.6
2022-11-24T02:13:17.367Z,90.6
2022-11-24T02:14:20.542Z,90.5
2022-11-24T02:15:23.891Z,90.5
2022-11-24T02:16:26.992Z,90.6
2022-11-24T02:17:30.217Z,90.6
2022-11-24T02:18:32.673Z,90.7
2022-11-24T02:19:36.919Z,90.7
2022-11-24T02:20:39.799Z,90.6
2022-11-24T02:21:43.569Z,90.6
2022-11-24T02:22:46.436Z,90.5
2022-11-24T02:23:50.525Z,90.5
2022-11-24T02:24:52.978Z,90.5
2022-11-24T02:25:56.149Z,90.5
2022-11-24T02:26:59.409Z,90.4
2022-11-24T02:28:02.410Z,90.4
2022-11-24T02:29:05.626Z,90.4
2022-11-24T02:30:08.330Z,90.3
2022-11-24T02:31:12.089Z,90.2
2022-11-24T02:32:14.959Z,90.2
2022-11-24T02:33:17.899Z,90.2
2022-11-24T02:34:21.013Z,90.2
2022-11-24T02:35:25.275Z,90.2
2022-11-24T02:36:27.785Z,90.3
2022-11-24T02:37:30.621Z,90.3
2022-11-24T02:38:34.075Z,90.3
2022-11-24T02:39:37.778Z,90.3
2022-11-24T02:40:40.936Z,90.3
2022-11-24T02:41:44.011Z,90.2
2022-11-24T02:42:46.733Z,90.2
2022-11-24T02:43:49.268Z,90.2
2022-11-24T02:44:52.068Z,90.2
2022-11-24T02:45:54.909Z,90.2
2022-11-24T02:46:57.819Z,90.1
2022-11-24T02:48:00.799Z,90.1
2022-11-24T02:49:03.627Z,90.2
2022-11-24T02:50:06.186Z,90.2
2022-11-24T02:51:10.389Z,90.2
2022-11-24T02:52:13.238Z,90.2
2022-11-24T02:53:15.928Z,90.3
2022-11-24T02:54:18.504Z,90.2
2022-11-24T02:55:21.393Z,90.2
2022-11-24T02:56:23.985Z,90.2
2022-11-24T02:57:27.137Z,90.2
2022-11-24T02:58:30.317Z,90.3
2022-11-24T02:59:33.590Z,90.3
2022-11-24T03:00:36.214Z,90.3
2022-11-24T03:01:40.224Z,90.2
2022-11-24T03:02:43.314Z,90.1
2022-11-24T03:03:46.492Z,90
2022-11-24T03:04:49.412Z,89.9
2022-11-24T03:05:52.664Z,89.9
2022-11-24T03:06:56.939Z,89.9
2022-11-24T03:07:59.535Z,90
2022-11-24T03:09:02.698Z,90
2022-11-24T03:10:05.839Z,90
2022-11-24T03:11:08.712Z,89.9
2022-11-24T03:12:11.951Z,89.9
2022-11-24T03:13:15.718Z,89.9
2022-11-24T03:14:18.435Z,90
2022-11-24T03:15:21.877Z,89.9
2022-11-24T03:16:25.505Z,90
2022-11-24T03:17:28.191Z,90.1
2022-11-24T03:18:31.008Z,90.1
2022-11-24T03:19:33.446Z,90.1
2022-11-24T03:20:36.447Z,90.1
2022-11-24T03:21:39.409Z,90.1
2022-11-24T03:22:43.612Z,90.1
2022-11-24T03:23:45.774Z,90.2
2022-11-24T03:24:49.574Z,90.2
2022-11-24T03:25:53.060Z,90.1
2022-11-24T03:26:55.852Z,90.1
2022-11-24T03:27:59.038Z,90.1
2022-11-24T03:29:01.019Z,90.1
2022-11-24T03:30:04.524Z,90.1
2022-11-24T03:31:07.567Z,90.2
2022-11-24T03:32:10.885Z,90.2
2022-11-24T03:33:13.245Z,90.2
2022-11-24T03:34:16.203Z,90.2
2022-11-24T03:35:19.354Z,90.2
2022-11-24T03:36:22.033Z,90.1
2022-11-24T03:37:25.582Z,90.1
2022-11-24T03:38:29.821Z,90.2
2022-11-24T03:39:32.974Z,90.3
2022-11-24T03:40:36.197Z,90.3
2022-11-24T03:41:38.728Z,90.3
2022-11-24T03:42:41.685Z,90.2
2022-11-24T03:43:45.813Z,90.1
2022-11-24T03:44:48.047Z,90.1
2022-11-24T03:45:51.418Z,90.1
2022-11-24T03:46:54.311Z,90.1
2022-11-24T03:47:56.931Z,90.1
2022-11-24T03:49:00.466Z,90.1
2022-11-24T03:50:03.714Z,90.1
2022-11-24T03:51:06.985Z,90.2
2022-11-24T03:52:10.289Z,90.2
2022-11-24T03:53:13.509Z,90.1
2022-11-24T03:54:17.504Z,90
2022-11-24T03:55:20.851Z,90
2022-11-24T03:56:23.842Z,90
2022-11-24T03:57:26.844Z,90
2022-11-24T03:58:30.131Z,90.1
2022-11-24T03:59:32.579Z,90.1
2022-11-24T04:00:36.171Z,90.1
2022-11-24T04:01:39.087Z,90.1
2022-11-24T04:02:42.247Z,90
2022-11-24T04:03:45.272Z,90
2022-11-24T04:04:51.289Z,90.1
2022-11-24T04:05:54.233Z,90.1
2022-11-24T04:06:57.588Z,90.1
2022-11-24T04:08:00.770Z,90.1
2022-11-24T04:09:03.809Z,90.1
2022-11-24T04:10:07.732Z,90.1
2022-11-24T04:11:10.386Z,89.9
2022-11-24T04:12:13.475Z,89.8
2022-11-24T04:13:17.035Z,89.9
2022-11-24T04:14:20.404Z,90
2022-11-24T04:15:23.312Z,90
2022-11-24T04:16:26.366Z,90
2022-11-24T04:17:29.176Z,90
2022-11-24T04:18:31.890Z,90
2022-11-24T04:19:35.627Z,90
2022-11-24T04:20:38.751Z,90
2022-11-24T04:21:41.982Z,90.1
2022-11-24T04:22:44.982Z,90.1
2022-11-24T04:23:47.770Z,90.2
2022-11-24T04:24:51.079Z,90.3
2022-11-24T04:25:54.958Z,90.3
2022-11-24T04:26:58.086Z,90.4
2022-11-24T04:28:00.416Z,90.4
2022-11-24T04:29:03.926Z,90.4
2022-11-24T04:30:06.738Z,90.4
2022-11-24T04:31:09.784Z,90.4
2022-11-24T04:32:12.355Z,90.5
2022-11-24T04:33:15.531Z,90.6
2022-11-24T04:34:18.987Z,90.5
2022-11-24T04:35:22.013Z,90.5
2022-11-24T04:36:24.629Z,90.5
2022-11-24T04:37:28.201Z,90.4
2022-11-24T04:39:29.769Z,90.4
2022-11-24T04:40:34.621Z,90.3
2022-11-24T04:41:38.831Z,90.5
2022-11-24T04:42:41.072Z,90.6
2022-11-24T04:43:43.989Z,90.6
2022-11-24T04:44:47.063Z,90.6
2022-11-24T04:45:49.603Z,90.7
2022-11-24T04:46:52.577Z,90.7
2022-11-24T04:47:55.910Z,90.7
2022-11-24T04:48:59.142Z,90.6
2022-11-24T04:50:01.962Z,90.6
2022-11-24T04:51:05.642Z,90.5
2022-11-24T04:52:08.530Z,90.4
2022-11-24T04:53:11.602Z,90.4
2022-11-24T04:54:14.418Z,90.5
2022-11-24T04:55:17.703Z,90.5
2022-11-24T04:56:20.736Z,90.6
2022-11-24T04:57:25.018Z,90.7
2022-11-24T04:58:27.793Z,90.7
2022-11-24T04:59:30.480Z,90.7
2022-11-24T05:00:33.069Z,90.7
2022-11-24T05:01:36.759Z,90.5
2022-11-24T05:02:39.743Z,90.5
2022-11-24T05:03:42.624Z,90.3
2022-11-24T05:04:45.239Z,90.3
2022-11-24T05:05:48.181Z,90.3
2022-11-24T05:06:50.689Z,90.4
2022-11-24T05:07:53.817Z,90.4
2022-11-24T05:08:57.187Z,90.4
2022-11-24T05:10:00.730Z,90.4
2022-11-24T05:11:04.233Z,90.4
2022-11-24T05:12:07.733Z,90.5
2022-11-24T05:13:11.806Z,90.5
2022-11-24T05:14:15.139Z,90.5
2022-11-24T05:15:18.264Z,90.5
2022-11-24T05:16:21.611Z,90.5
2022-11-24T05:17:25.470Z,90.5
2022-11-24T05:18:27.953Z,90.5
2022-11-24T05:19:33.684Z,90.5
2022-11-24T05:20:37.187Z,90.4
2022-11-24T05:21:39.887Z,90.4
2022-11-24T05:22:42.386Z,90.4
2022-11-24T05:23:45.716Z,90.3
2022-11-24T05:24:48.767Z,90.3
2022-11-24T05:25:51.626Z,90.3
2022-11-24T05:26:55.055Z,90.3
2022-11-24T05:27:58.587Z,90.3
2022-11-24T05:29:02.369Z,90.3
2022-11-24T05:30:05.411Z,90.3
2022-11-24T05:31:08.363Z,90.3
2022-11-24T05:32:10.962Z,90.2
2022-11-24T05:33:13.657Z,90.3
2022-11-24T05:34:16.703Z,90.3
2022-11-24T05:35:19.218Z,90.4
2022-11-24T05:36:21.988Z,90.4
2022-11-24T05:37:24.561Z,90.6
2022-11-24T05:38:27.686Z,90.6
2022-11-24T05:39:30.342Z,90.6
2022-11-24T05:40:32.199Z,90.6
2022-11-24T05:41:35.630Z,90.6
2022-11-24T05:42:48.953Z,90.5
2022-11-24T05:43:51.988Z,90.4
2022-11-24T05:44:56.130Z,90.3
2022-11-24T05:45:59.292Z,90.3
2022-11-24T05:47:02.631Z,90.3
2022-11-24T05:48:05.923Z,90.3
2022-11-24T05:49:08.622Z,90.3
2022-11-24T05:50:11.385Z,90.2
2022-11-24T05:51:14.431Z,90.1
2022-11-24T05:52:17.489Z,90.1
2022-11-24T05:53:20.188Z,90.2
2022-11-24T05:54:23.508Z,90.2
2022-11-24T05:55:26.621Z,90.3
2022-11-24T05:56:30.053Z,90.3
2022-11-24T05:57:32.547Z,90.3
2022-11-24T05:58:35.980Z,90.2
2022-11-24T05:59:38.594Z,90.2
2022-11-24T06:00:42.661Z,90.3
2022-11-24T06:01:46.107Z,90.2
2022-11-24T06:02:49.943Z,90.3
2022-11-24T06:03:53.129Z,90.3
2022-11-24T06:04:55.896Z,90.3
2022-11-24T06:05:58.875Z,90.3
2022-11-24T06:07:01.265Z,90.3
2022-11-24T06:08:04.671Z,90.2
2022-11-24T06:09:07.506Z,90.2
2022-11-24T06:10:10.028Z,90.2
2022-11-24T06:11:13.432Z,90.2
2022-11-24T06:12:16.007Z,90.2
2022-11-24T06:13:19.514Z,90.2
2022-11-24T06:14:22.416Z,90.1
2022-11-24T06:15:25.504Z,90
2022-11-24T06:16:29.879Z,90.1
2022-11-24T06:17:32.974Z,90.1
2022-11-24T06:18:35.924Z,90
2022-11-24T06:19:43.489Z,90
2022-11-24T06:21:12.808Z,90
2022-11-24T06:22:16.129Z,90
2022-11-24T06:23:19.001Z,90
2022-11-24T06:24:21.991Z,90.1
2022-11-24T06:25:23.933Z,90.1
2022-11-24T06:26:26.979Z,90.2
2022-11-24T06:27:30.092Z,90.1
2022-11-24T06:28:33.749Z,90
2022-11-24T06:29:36.827Z,89.9
2022-11-24T06:30:40.261Z,89.8
2022-11-24T06:31:44.800Z,89.8
2022-11-24T06:32:51.264Z,89.8
2022-11-24T06:33:53.414Z,89.9
2022-11-24T06:34:56.020Z,90
2022-11-24T06:35:59.273Z,90.1
2022-11-24T06:37:02.324Z,90.2
2022-11-24T06:38:04.734Z,90.1
2022-11-24T06:39:07.625Z,90.1
2022-11-24T06:40:10.359Z,90.1
2022-11-24T06:41:13.409Z,90.1
2022-11-24T06:42:15.981Z,90
2022-11-24T06:43:19.020Z,90
2022-11-24T06:44:21.717Z,89.9
2022-11-24T06:45:25.656Z,89.8
2022-11-24T06:46:28.942Z,89.7
2022-11-24T06:47:32.439Z,89.6
2022-11-24T06:48:35.427Z,89.6
2022-11-24T06:49:37.648Z,89.6
2022-11-24T06:50:40.623Z,89.7
2022-11-24T06:51:42.843Z,89.8
2022-11-24T06:52:45.897Z,89.8
2022-11-24T06:53:48.751Z,89.9
2022-11-24T06:54:51.791Z,90
2022-11-24T06:55:54.837Z,90.1
2022-11-24T06:56:58.044Z,90.1
2022-11-24T06:58:00.891Z,90
2022-11-24T06:59:04.025Z,89.9
2022-11-24T07:00:07.275Z,90
2022-11-24T07:01:10.483Z,89.9
2022-11-24T07:02:13.853Z,89.9
2022-11-24T07:03:17.812Z,89.9
2022-11-24T07:04:20.548Z,89.9
2022-11-24T07:05:23.802Z,89.9
2022-11-24T07:06:25.953Z,89.8
2022-11-24T07:07:28.977Z,89.7
2022-11-24T07:08:32.223Z,89.6
2022-11-24T07:09:35.344Z,89.6
2022-11-24T07:10:38.672Z,89.7
2022-11-24T07:11:41.161Z,89.7
2022-11-24T07:12:44.420Z,89.8
2022-11-24T07:13:47.462Z,89.8
2022-11-24T07:14:49.607Z,89.8
2022-11-24T07:15:52.395Z,89.8
2022-11-24T07:16:55.482Z,89.7
2022-11-24T07:17:58.158Z,89.8
2022-11-24T07:19:02.312Z,89.8
2022-11-24T07:20:06.304Z,89.9
2022-11-24T07:21:09.156Z,89.9
2022-11-24T07:22:12.569Z,89.9
2022-11-24T07:23:15.627Z,89.8
2022-11-24T07:24:18.390Z,89.8
2022-11-24T07:25:21.759Z,89.9
2022-11-24T07:26:23.983Z,89.9
2022-11-24T07:27:26.975Z,89.8
2022-11-24T07:28:29.764Z,89.8
2022-11-24T07:29:32.901Z,89.8
2022-11-24T07:30:36.024Z,89.8
2022-11-24T07:31:39.427Z,89.8
2022-11-24T07:32:43.272Z,89.7
2022-11-24T07:33:46.823Z,89.7
2022-11-24T07:34:50.290Z,89.8
2022-11-24T07:35:53.415Z,89.8
2022-11-24T07:36:55.976Z,89.8
2022-11-24T07:37:59.452Z,89.8
2022-11-24T07:39:03.149Z,89.8
2022-11-24T07:40:05.847Z,89.8
2022-11-24T07:41:08.712Z,89.9
2022-11-24T07:42:11.205Z,89.9
2022-11-24T07:43:21.391Z,89.9
2022-11-24T07:44:25.316Z,89.9
2022-11-24T07:45:29.026Z,89.9
2022-11-24T07:46:32.032Z,90
2022-11-24T07:47:35.075Z,90
2022-11-24T07:48:37.888Z,90
2022-11-24T07:49:41.652Z,90
2022-11-24T07:50:45.233Z,89.9
2022-11-24T07:51:58.702Z,89.9
2022-11-24T07:53:01.280Z,89.9
2022-11-24T07:54:04.716Z,89.9
2022-11-24T07:55:07.495Z,89.8
2022-11-24T07:56:11.293Z,89.6
2022-11-24T07:57:14.072Z,89.6
2022-11-24T07:58:16.770Z,89.6
2022-11-24T07:59:20.019Z,89.6
2022-11-24T08:00:23.092Z,89.7
2022-11-24T08:01:27.014Z,89.7
2022-11-24T08:02:29.904Z,89.8
2022-11-24T08:03:33.321Z,89.8
2022-11-24T08:04:37.282Z,89.8
2022-11-24T08:06:39.583Z,89.7
2022-11-24T08:07:51.264Z,89.7
2022-11-24T08:08:54.596Z,89.8
2022-11-24T08:09:58.028Z,89.7
2022-11-24T08:11:00.944Z,89.7
2022-11-24T08:12:03.435Z,89.6
2022-11-24T08:13:06.849Z,89.7
2022-11-24T08:14:09.693Z,89.6
2022-11-24T08:15:13.054Z,89.6
2022-11-24T08:16:16.558Z,89.6
2022-11-24T08:17:19.358Z,89.6
2022-11-24T08:18:22.481Z,89.7
2022-11-24T08:19:26.164Z,89.7
2022-11-24T08:20:29.316Z,89.7
2022-11-24T08:21:32.313Z,89.6
2022-11-24T08:22:35.498Z,89.6
2022-11-24T08:23:39.608Z,89.5
2022-11-24T08:24:42.584Z,89.4
2022-11-24T08:25:44.800Z,89.4
2022-11-24T08:26:48.408Z,89.3
2022-11-24T08:27:51.177Z,89.4
2022-11-24T08:28:54.893Z,89.3
2022-11-24T08:29:58.517Z,89.3
2022-11-24T08:31:01.648Z,89.3
2022-11-24T08:32:04.655Z,89.2
2022-11-24T08:33:07.501Z,89.2
2022-11-24T08:34:09.924Z,89.2
2022-11-24T08:35:16.345Z,89.2
2022-11-24T08:36:19.364Z,89.2
2022-11-24T08:37:22.435Z,89.2
2022-11-24T08:38:25.582Z,89.4
2022-11-24T08:39:29.731Z,89.5
2022-11-24T08:40:33.143Z,89.5
2022-11-24T08:41:36.852Z,89.5
2022-11-24T08:42:40.176Z,89.4
2022-11-24T08:43:43.164Z,89.4
2022-11-24T08:44:46.409Z,89.3
2022-11-24T08:45:50.056Z,89.3
2022-11-24T08:46:52.967Z,89.4
2022-11-24T08:47:56.102Z,89.4
2022-11-24T08:48:59.517Z,89.4
2022-11-24T08:50:02.970Z,89.4
2022-11-24T08:51:06.652Z,89.4
2022-11-24T08:52:09.704Z,89.4
2022-11-24T08:53:12.651Z,89.4
2022-11-24T08:54:15.540Z,89.5
2022-11-24T08:55:19.717Z,89.6
2022-11-24T08:56:22.844Z,89.5
2022-11-24T08:57:26.346Z,89.5
2022-11-24T08:58:29.401Z,89.6
2022-11-24T08:59:31.701Z,89.5
2022-11-24T09:00:34.638Z,89.5
2022-11-24T09:01:37.935Z,89.5
2022-11-24T09:02:41.102Z,89.5
2022-11-24T09:03:52.359Z,89.5
2022-11-24T09:04:56.066Z,89.5
2022-11-24T09:05:59.149Z,89.3
2022-11-24T09:07:02.285Z,89.3
2022-11-24T09:08:05.430Z,89.3
2022-11-24T09:09:09.445Z,89.3
2022-11-24T09:10:12.517Z,89.2
2022-11-24T09:11:16.539Z,89.3
2022-11-24T09:12:19.345Z,89.3
2022-11-24T09:13:22.690Z,89.3
2022-11-24T09:14:26.688Z,89.2
2022-11-24T09:15:29.483Z,89.2
2022-11-24T09:16:33.007Z,89.1
2022-11-24T09:17:36.536Z,89.2
2022-11-24T09:18:39.861Z,89.1
2022-11-24T09:19:43.573Z,89.1
2022-11-24T09:20:46.350Z,89.1
2022-11-24T09:21:49.608Z,89
2022-11-24T09:22:53.014Z,88.9
2022-11-24T09:23:56.386Z,88.8
2022-11-24T09:24:59.535Z,88.8
2022-11-24T09:26:02.895Z,88.8
2022-11-24T09:27:07.102Z,88.8
2022-11-24T09:28:10.403Z,88.9
2022-11-24T09:29:13.104Z,88.9
2022-11-24T09:30:16.075Z,88.8
2022-11-24T09:31:19.854Z,88.9
2022-11-24T09:32:23.321Z,88.9
2022-11-24T09:33:26.845Z,88.8
2022-11-24T09:34:30.090Z,88.7
2022-11-24T09:35:33.149Z,88.7
2022-11-24T09:36:35.928Z,88.6
2022-11-24T09:37:39.676Z,88.7
2022-11-24T09:38:43.046Z,88.7
2022-11-24T09:39:45.777Z,89.6
2022-11-24T09:40:48.811Z,91.5
2022-11-24T09:41:52.716Z,91.6
2022-11-24T09:42:56.844Z,90.7
2022-11-24T09:43:59.750Z,88.8
2022-11-24T09:45:02.815Z,87.7
2022-11-24T09:46:08.235Z,87.3
2022-11-24T09:47:12.137Z,87.4
2022-11-24T09:48:14.998Z,87.4
2022-11-24T09:49:18.333Z,87.4
2022-11-24T09:50:21.204Z,87.5
2022-11-24T09:51:24.340Z,87.6
2022-11-24T09:52:27.653Z,87.6
2022-11-24T09:53:30.349Z,87.7
2022-11-24T09:54:33.751Z,87.7
2022-11-24T09:55:36.758Z,87.8
2022-11-24T09:56:39.921Z,87.9
2022-11-24T09:57:43.085Z,88
2022-11-24T09:58:46.599Z,88
2022-11-24T09:59:49.019Z,88
2022-11-24T10:00:51.503Z,88
2022-11-24T10:01:54.503Z,88.3
2022-11-24T10:02:58.087Z,88.3
2022-11-24T10:04:07.894Z,88.4
2022-11-24T10:05:10.653Z,88.3
2022-11-24T10:06:13.842Z,88.3
2022-11-24T10:07:17.553Z,88.3
2022-11-24T10:08:20.758Z,88.2
2022-11-24T10:09:22.913Z,88.1
2022-11-24T10:10:27.090Z,88.1
2022-11-24T10:11:30.165Z,88.1
2022-11-24T10:12:33.181Z,88
2022-11-24T10:13:36.133Z,88
2022-11-24T10:14:39.927Z,88.1
2022-11-24T10:15:43.535Z,88.1
2022-11-24T10:16:47.135Z,88
2022-11-24T10:17:50.258Z,88
2022-11-24T10:18:53.855Z,88.1
2022-11-24T10:19:57.526Z,88.1
2022-11-24T10:21:00.644Z,87.8
2022-11-24T10:22:04.078Z,87.7
2022-11-24T10:23:06.856Z,87.7
2022-11-24T10:24:09.273Z,87.8
2022-11-24T10:25:12.390Z,87.9
2022-11-24T10:26:15.639Z,87.9
2022-11-24T10:27:19.089Z,87.9
2022-11-24T10:28:22.807Z,87.8
2022-11-24T10:29:26.513Z,87.7
2022-11-24T10:30:30.650Z,87.8
2022-11-24T10:31:34.918Z,87.8
2022-11-24T10:32:38.532Z,87.8
2022-11-24T10:33:41.971Z,87.7
2022-11-24T10:34:45.124Z,87.5
2022-11-24T10:35:47.540Z,87.3
2022-11-24T10:36:51.197Z,87.3
2022-11-24T10:37:54.324Z,87.4
2022-11-24T10:38:57.396Z,87.5
2022-11-24T10:40:01.837Z,87.5
2022-11-24T10:41:05.054Z,87.4
2022-11-24T10:42:08.752Z,87.4
2022-11-24T10:43:11.576Z,87.6
2022-11-24T10:44:14.307Z,87.5
2022-11-24T10:45:17.588Z,87.3
2022-11-24T10:46:21.981Z,87.3
2022-11-24T10:47:25.700Z,87.2
2022-11-24T10:48:28.976Z,87.2
2022-11-24T10:49:32.492Z,87.1
2022-11-24T10:50:37.348Z,87
2022-11-24T10:51:40.556Z,87
2022-11-24T10:52:43.704Z,86.8
2022-11-24T10:53:46.765Z,86.8
2022-11-24T10:54:50.096Z,86.8
2022-11-24T10:55:53.696Z,86.8
2022-11-24T10:56:57.753Z,86.7
2022-11-24T10:58:01.031Z,86.7
2022-11-24T10:59:04.196Z,86.6
2022-11-24T11:00:07.097Z,86.8
2022-11-24T11:01:11.083Z,86.9
2022-11-24T11:02:15.515Z,86.7
2022-11-24T11:03:19.199Z,86.7
2022-11-24T11:04:22.860Z,86.8
2022-11-24T11:05:25.560Z,86.7
2022-11-24T11:06:29.189Z,86.7
2022-11-24T11:07:32.228Z,86.7
2022-11-24T11:08:35.191Z,86.6
2022-11-24T11:09:38.488Z,86.5
2022-11-24T11:10:41.526Z,86.5
2022-11-24T11:11:45.522Z,86.4
2022-11-24T11:12:48.961Z,86.4
2022-11-24T11:13:51.940Z,86.3
2022-11-24T11:14:55.445Z,86.3
2022-11-24T11:15:59.361Z,86.3
2022-11-24T11:17:02.943Z,86.3
2022-11-24T11:18:07.360Z,86.2
2022-11-24T11:19:53.357Z,86.2
2022-11-24T11:21:06.319Z,86.1
2022-11-24T11:22:09.397Z,86
2022-11-24T11:23:12.451Z,86
2022-11-24T11:24:16.428Z,86
2022-11-24T11:25:18.829Z,86
2022-11-24T11:26:22.529Z,85.9
2022-11-24T11:27:25.952Z,85.9
2022-11-24T11:28:29.382Z,85.9
2022-11-24T11:31:20.204Z,85.9
2022-11-24T11:34:05.212Z,85.9
2022-11-24T11:35:32.754Z,86
2022-11-24T11:36:36.373Z,85.9
2022-11-24T11:37:39.984Z,85.8
2022-11-24T11:38:42.869Z,85.7
2022-11-24T11:39:50.344Z,85.6
2022-11-24T11:40:53.424Z,85.7
2022-11-24T11:41:55.564Z,85.7
2022-11-24T11:43:05.437Z,85.6
2022-11-24T11:44:08.501Z,85.6
2022-11-24T11:45:11.183Z,85.6
2022-11-24T11:46:16.266Z,85.6
2022-11-24T11:47:19.793Z,85.6
2022-11-24T11:48:22.743Z,85.6
2022-11-24T11:49:26.293Z,85.6
2022-11-24T11:50:30.603Z,85.6
2022-11-24T11:51:34.957Z,85.5
2022-11-24T11:52:38.399Z,85.5
2022-11-24T11:53:41.186Z,85.4
2022-11-24T11:54:43.887Z,85.4
2022-11-24T11:55:51.193Z,85.5
2022-11-24T11:56:54.598Z,85.5
2022-11-24T11:57:57.088Z,85.4
2022-11-24T11:59:00.800Z,85.3
2022-11-24T12:00:04.129Z,85.4
2022-11-24T12:01:07.511Z,85.6
2022-11-24T12:02:10.869Z,85.6
2022-11-24T12:03:15.059Z,85.7
2022-11-24T12:04:19.050Z,85.8
2022-11-24T12:05:22.412Z,85.7
2022-11-24T12:06:25.790Z,85.7
2022-11-24T12:07:30.209Z,85.6
2022-11-24T12:09:21.599Z,85.5
2022-11-24T12:10:24.884Z,85.4
2022-11-24T12:11:27.893Z,85.4
2022-11-24T12:12:31.253Z,85.4
2022-11-24T12:13:34.662Z,85.4
2022-11-24T12:14:40.895Z,85.4
2022-11-24T12:15:44.187Z,85.5
2022-11-24T12:16:48.159Z,85.5
2022-11-24T12:17:50.575Z,85.5
2022-11-24T12:18:59.941Z,85.5
2022-11-24T12:20:03.295Z,85.5
2022-11-24T12:21:06.029Z,85.4
2022-11-24T12:22:09.706Z,85.4
2022-11-24T12:23:13.144Z,85.4
2022-11-24T12:24:16.468Z,85.3
2022-11-24T12:25:19.167Z,85.4
2022-11-24T12:26:22.321Z,85.4
2022-11-24T12:27:25.039Z,85.4
2022-11-24T12:28:28.721Z,85.3
2022-11-24T12:29:32.619Z,85.3
2022-11-24T12:30:36.806Z,85.3
2022-11-24T12:31:40.154Z,85.3
2022-11-24T12:32:43.515Z,85.3
2022-11-24T12:34:01.789Z,85.3
2022-11-24T12:35:04.860Z,85.3
2022-11-24T12:36:08.310Z,85.3
2022-11-24T12:37:11.978Z,85.3
2022-11-24T12:38:15.328Z,85.4
2022-11-24T12:39:18.499Z,85.4
2022-11-24T12:40:21.271Z,85.5
2022-11-24T12:41:55.063Z,85.5
2022-11-24T12:42:58.135Z,85.6
2022-11-24T12:44:01.134Z,85.8
2022-11-24T12:45:04.736Z,85.8
2022-11-24T12:46:18.165Z,85.8
2022-11-24T12:47:21.710Z,85.8
2022-11-24T12:48:24.810Z,85.7
2022-11-24T12:49:28.456Z,85.5
2022-11-24T12:50:31.300Z,85.6
2022-11-24T12:51:35.329Z,85.7
2022-11-24T12:52:38.752Z,85.6
2022-11-24T12:53:41.925Z,85.6
2022-11-24T12:54:44.736Z,85.6
2022-11-24T12:55:47.501Z,85.4
2022-11-24T12:56:50.780Z,85.3
2022-11-24T12:57:54.560Z,85.3
2022-11-24T12:58:57.415Z,85.5
2022-11-24T13:00:00.396Z,85.5
2022-11-24T13:01:03.811Z,85.5
2022-11-24T13:02:07.575Z,85.7
2022-11-24T13:03:11.428Z,85.8
2022-11-24T13:04:14.594Z,85.9
2022-11-24T13:05:18.597Z,86
2022-11-24T13:06:22.197Z,86
2022-11-24T13:07:25.576Z,85.8
2022-11-24T13:08:29.377Z,85.8
2022-11-24T13:09:33.091Z,85.7
2022-11-24T13:11:06.517Z,85.6
2022-11-24T13:12:09.873Z,85.4
2022-11-24T13:13:12.703Z,85.3
2022-11-24T13:14:16.138Z,85.3
2022-11-24T13:16:06.985Z,85.2
2022-11-24T13:25:17.365Z,84.9
2022-11-24T13:26:21.044Z,85.1
2022-11-24T13:27:25.131Z,85.1
2022-11-24T13:29:25.570Z,85.1
2022-11-24T13:30:28.696Z,85.1
2022-11-24T13:31:32.317Z,85.1
2022-11-24T13:32:35.454Z,85
2022-11-24T13:33:38.221Z,85
2022-11-24T13:34:41.537Z,85
2022-11-24T13:35:45.021Z,84.9
2022-11-24T13:36:48.374Z,84.7
2022-11-24T13:37:51.172Z,84.7
2022-11-24T13:38:54.419Z,84.7
2022-11-24T13:39:57.483Z,84.7
2022-11-24T13:41:29.922Z,84.7
2022-11-24T13:42:45.186Z,84.8
2022-11-24T13:43:47.983Z,85
2022-11-24T13:44:51.321Z,84.9
2022-11-24T13:45:54.751Z,84.8
2022-11-24T13:47:07.974Z,84.8
2022-11-24T13:48:11.174Z,84.7
2022-11-24T13:49:14.157Z,84.6
2022-11-24T13:50:22.450Z,84.6
2022-11-24T13:51:25.532Z,84.6
2022-11-24T13:52:28.687Z,84.5
2022-11-24T13:53:31.741Z,84.4
2022-11-24T13:54:36.015Z,84.5
2022-11-24T13:55:39.356Z,84.6
2022-11-24T13:56:43.075Z,84.6
2022-11-24T13:57:46.322Z,84.6
2022-11-24T13:58:49.945Z,84.6
2022-11-24T13:59:52.738Z,84.7
2022-11-24T14:00:59.845Z,84.6
2022-11-24T14:02:03.099Z,84.7
2022-11-24T14:03:06.626Z,84.6
2022-11-24T14:04:39.883Z,84.8
2022-11-24T14:05:42.963Z,84.9
2022-11-24T14:06:45.938Z,85
2022-11-24T14:07:49.448Z,85
2022-11-24T14:08:52.933Z,85
2022-11-24T14:09:56.275Z,84.9
2022-11-24T14:10:59.690Z,84.8
2022-11-24T14:12:03.644Z,84.7
2022-11-24T14:13:07.019Z,84.7
2022-11-24T14:14:10.185Z,84.6
2022-11-24T14:15:19.867Z,84.7
2022-11-24T14:16:23.374Z,85
2022-11-24T14:17:26.866Z,85.2
2022-11-24T14:18:29.977Z,85.2
2022-11-24T14:19:33.808Z,85.4
2022-11-24T14:20:36.782Z,85.6
2022-11-24T14:21:39.280Z,85.5
2022-11-24T14:22:42.097Z,85.5
2022-11-24T14:23:44.803Z,85.5
2022-11-24T14:24:49.206Z,85.4
2022-11-24T14:25:52.463Z,85.4
2022-11-24T14:26:55.511Z,85.2
2022-11-24T14:27:59.634Z,85.1
2022-11-24T14:29:03.271Z,85.1